createdAt,value
2022-10-08T00:01:25.695Z,12.46
2022-10-08T00:03:55.056Z,12.53
2022-10-08T00:06:30.223Z,12.54
2022-10-08T00:09:01.886Z,12.51
2022-10-08T00:11:35.146Z,12.53
2022-10-08T00:14:03.717Z,12.55
2022-10-08T00:16:37.680Z,12.52
2022-10-08T00:19:08.830Z,12.58
2022-10-08T00:21:38.963Z,12.57
2022-10-08T00:24:08.379Z,12.59
2022-10-08T00:26:41.230Z,12.61
2022-10-08T00:29:13.938Z,12.62
2022-10-08T00:31:44.459Z,12.62
2022-10-08T00:34:17.951Z,12.60
2022-10-08T00:36:46.141Z,12.59
2022-10-08T00:39:19.329Z,12.63
2022-10-08T00:41:52.508Z,12.67
2022-10-08T00:44:48.299Z,12.63
2022-10-08T00:47:31.461Z,12.63
2022-10-08T00:50:05.369Z,12.60
2022-10-08T00:52:35.118Z,12.57
2022-10-08T00:55:06.718Z,12.62
2022-10-08T00:57:35.804Z,12.65
2022-10-08T01:00:22.632Z,12.68
2022-10-08T01:02:50.599Z,12.72
2022-10-08T01:05:22.759Z,12.71
2022-10-08T01:08:10.269Z,12.77
2022-10-08T01:10:54.166Z,12.76
2022-10-08T01:13:39.469Z,12.80
2022-10-08T01:16:41.637Z,12.78
2022-10-08T01:19:21.009Z,12.80
2022-10-08T01:22:18.345Z,12.80
2022-10-08T01:25:07.534Z,12.86
2022-10-08T01:27:43.190Z,12.87
2022-10-08T01:30:15.173Z,12.86
2022-10-08T01:32:49.480Z,12.84
2022-10-08T01:35:24.188Z,12.81
2022-10-08T01:37:56.058Z,12.82
2022-10-08T01:40:29.179Z,12.82
2022-10-08T01:43:00.995Z,12.76
2022-10-08T01:45:34.466Z,12.75
2022-10-08T01:48:07.400Z,12.74
2022-10-08T01:50:52.831Z,12.72
2022-10-08T01:53:24.218Z,12.68
2022-10-08T01:55:54.746Z,12.68
2022-10-08T01:58:31.365Z,12.71
2022-10-08T02:01:07.042Z,12.73
2022-10-08T02:03:34.747Z,12.77
2022-10-08T02:06:05.598Z,12.82
2022-10-08T02:08:33.128Z,12.88
2022-10-08T02:11:00.654Z,12.91
2022-10-08T02:13:28.168Z,12.97
2022-10-08T02:16:01.758Z,13.04
2022-10-08T02:18:46.895Z,13.09
2022-10-08T02:21:25.939Z,13.12
2022-10-08T02:24:03.268Z,13.15
2022-10-08T02:26:42.763Z,13.18
2022-10-08T02:29:24.554Z,13.21
2022-10-08T02:32:04.830Z,13.21
2022-10-08T02:34:37.890Z,13.20
2022-10-08T02:37:14.514Z,13.21
2022-10-08T02:39:49.842Z,13.21
2022-10-08T02:42:23.179Z,13.24
2022-10-08T02:44:57.934Z,13.24
2022-10-08T02:47:28.886Z,13.25
2022-10-08T02:50:02.769Z,13.28
2022-10-08T02:52:39.688Z,13.26
2022-10-08T02:55:19.206Z,13.27
2022-10-08T02:57:55.154Z,13.31
2022-10-08T03:00:23.636Z,13.33
2022-10-08T03:03:07.529Z,13.35
2022-10-08T03:05:37.234Z,13.38
2022-10-08T03:08:06.403Z,13.34
2022-10-08T03:10:38.316Z,13.27
2022-10-08T03:13:07.699Z,13.27
2022-10-08T03:15:37.037Z,13.27
2022-10-08T03:18:08.907Z,13.30
2022-10-08T03:20:49.475Z,13.28
2022-10-08T03:23:18.908Z,13.27
2022-10-08T03:25:46.393Z,13.32
2022-10-08T03:28:13.898Z,13.30
2022-10-08T03:30:41.594Z,13.31
2022-10-08T03:33:09.202Z,13.36
2022-10-08T03:35:36.646Z,13.42
2022-10-08T03:38:04.137Z,13.40
2022-10-08T03:40:31.686Z,13.44
2022-10-08T03:42:59.144Z,13.43
2022-10-08T03:45:26.633Z,13.46
2022-10-08T03:47:54.127Z,13.56
2022-10-08T03:50:22.277Z,13.53
2022-10-08T03:52:50.170Z,13.51
2022-10-08T03:55:18.327Z,13.52
2022-10-08T03:57:45.856Z,13.50
2022-10-08T04:00:13.551Z,13.48
2022-10-08T04:02:41.242Z,13.49
2022-10-08T04:05:09.034Z,13.51
2022-10-08T04:07:36.505Z,13.57
2022-10-08T04:10:04.264Z,13.63
2022-10-08T04:12:31.725Z,13.61
2022-10-08T04:14:59.277Z,13.59
2022-10-08T04:17:26.739Z,13.63
2022-10-08T04:19:54.274Z,13.61
2022-10-08T04:22:21.725Z,13.65
2022-10-08T04:24:49.316Z,13.65
2022-10-08T04:27:16.927Z,13.70
2022-10-08T04:29:44.417Z,13.81
2022-10-08T04:32:11.868Z,13.90
2022-10-08T04:34:39.385Z,13.89
2022-10-08T04:37:06.865Z,13.92
2022-10-08T04:39:34.333Z,13.95
2022-10-08T04:42:01.874Z,14.02
2022-10-08T04:44:29.327Z,13.99
2022-10-08T04:46:56.997Z,14.00
2022-10-08T04:49:25.990Z,14.09
2022-10-08T04:51:53.524Z,14.04
2022-10-08T04:54:21.339Z,14.08
2022-10-08T04:56:48.826Z,14.06
2022-10-08T04:59:16.364Z,14.05
2022-10-08T05:01:43.882Z,14.03
2022-10-08T05:04:11.381Z,13.98
2022-10-08T05:06:38.836Z,13.95
2022-10-08T05:09:06.336Z,13.90
2022-10-08T05:11:34.506Z,13.90
2022-10-08T05:14:02.842Z,13.92
2022-10-08T05:16:30.388Z,13.91
2022-10-08T05:18:58.087Z,13.91
2022-10-08T05:21:28.248Z,13.90
2022-10-08T05:24:05.364Z,13.90
2022-10-08T05:26:57.104Z,13.89
2022-10-08T05:29:23.080Z,13.91
2022-10-08T05:31:50.567Z,13.93
2022-10-08T05:34:18.088Z,14.00
2022-10-08T05:36:45.540Z,14.07
2022-10-08T05:39:13.114Z,14.14
2022-10-08T05:41:40.913Z,14.20
2022-10-08T05:44:10.474Z,14.25
2022-10-08T05:46:39.445Z,14.27
2022-10-08T05:49:18.976Z,14.32
2022-10-08T05:51:47.487Z,14.33
2022-10-08T05:54:15.695Z,14.38
2022-10-08T05:56:43.615Z,14.46
2022-10-08T05:59:21.022Z,14.48
2022-10-08T06:01:49.116Z,14.65
2022-10-08T06:04:18.524Z,14.72
2022-10-08T06:06:46.595Z,14.82
2022-10-08T06:09:17.151Z,14.95
2022-10-08T06:11:45.025Z,15.07
2022-10-08T06:14:14.617Z,15.19
2022-10-08T06:16:42.117Z,15.35
2022-10-08T06:19:10.242Z,15.46
2022-10-08T06:21:38.035Z,15.57
2022-10-08T06:24:08.696Z,15.66
2022-10-08T06:26:38.761Z,15.66
2022-10-08T06:29:08.724Z,15.58
2022-10-08T06:31:36.999Z,15.58
2022-10-08T06:34:05.634Z,15.64
2022-10-08T06:36:35.075Z,15.84
2022-10-08T06:39:06.433Z,15.95
2022-10-08T06:41:35.282Z,15.97
2022-10-08T06:44:05.586Z,15.92
2022-10-08T06:46:34.463Z,15.89
2022-10-08T06:49:02.561Z,15.75
2022-10-08T06:51:30.795Z,15.62
2022-10-08T06:54:05.771Z,15.48
2022-10-08T06:56:36.176Z,15.42
2022-10-08T06:59:05.144Z,15.30
2022-10-08T07:01:34.157Z,15.28
2022-10-08T07:04:03.744Z,15.29
2022-10-08T07:06:31.160Z,15.28
2022-10-08T07:09:01.110Z,15.40
2022-10-08T07:11:30.484Z,15.47
2022-10-08T07:13:58.277Z,15.53
2022-10-08T07:16:27.695Z,15.46
2022-10-08T07:18:58.486Z,15.47
2022-10-08T07:21:27.982Z,15.40
2022-10-08T07:23:56.163Z,15.33
2022-10-08T07:26:26.769Z,15.31
2022-10-08T07:29:00.154Z,15.29
2022-10-08T07:31:30.297Z,15.28
2022-10-08T07:33:59.865Z,15.33
2022-10-08T07:36:28.900Z,15.37
2022-10-08T07:39:07.713Z,15.50
2022-10-08T07:41:35.645Z,15.75
2022-10-08T07:44:04.432Z,15.93
2022-10-08T07:46:34.695Z,16.12
2022-10-08T07:49:04.816Z,16.29
2022-10-08T07:51:34.188Z,16.35
2022-10-08T07:54:04.564Z,16.31
2022-10-08T07:56:33.576Z,16.48
2022-10-08T07:59:02.363Z,16.66
2022-10-08T08:01:31.051Z,16.76
2022-10-08T08:03:59.672Z,16.66
2022-10-08T08:06:27.293Z,16.50
2022-10-08T08:08:55.274Z,16.49
2022-10-08T08:11:25.129Z,16.50
2022-10-08T08:13:54.183Z,16.50
2022-10-08T08:16:25.704Z,16.37
2022-10-08T08:18:55.732Z,16.14
2022-10-08T08:21:26.854Z,16.31
2022-10-08T08:23:56.482Z,16.28
2022-10-08T08:26:29.331Z,16.39
2022-10-08T08:28:59.854Z,16.32
2022-10-08T08:31:33.484Z,16.29
2022-10-08T08:34:05.704Z,16.41
2022-10-08T08:36:36.213Z,16.29
2022-10-08T08:39:05.501Z,16.54
2022-10-08T08:42:10.213Z,16.73
2022-10-08T08:44:46.545Z,16.67
2022-10-08T08:47:41.243Z,17.00
2022-10-08T08:50:19.344Z,17.35
2022-10-08T08:52:47.206Z,17.58
2022-10-08T08:55:17.709Z,17.78
2022-10-08T08:58:21.235Z,17.88
2022-10-08T09:00:56.752Z,17.95
2022-10-08T09:03:34.956Z,17.98
2022-10-08T09:06:09.966Z,17.81
2022-10-08T09:09:20.246Z,17.69
2022-10-08T09:11:48.244Z,17.48
2022-10-08T09:14:30.615Z,17.51
2022-10-08T09:17:02.152Z,17.44
2022-10-08T09:19:29.753Z,17.64
2022-10-08T09:21:57.342Z,18.02
2022-10-08T09:24:25.929Z,18.52
2022-10-08T09:26:54.053Z,18.62
2022-10-08T09:29:34.119Z,18.86
2022-10-08T09:32:01.729Z,18.48
2022-10-08T09:34:29.171Z,18.15
2022-10-08T09:37:05.535Z,18.67
2022-10-08T09:39:35.989Z,18.96
2022-10-08T09:42:18.942Z,19.23
2022-10-08T09:44:49.244Z,19.32
2022-10-08T09:47:22.072Z,19.13
2022-10-08T09:50:03.782Z,18.82
2022-10-08T09:52:31.750Z,18.77
2022-10-08T09:54:59.161Z,18.40
2022-10-08T09:57:27.451Z,18.07
2022-10-08T10:00:03.084Z,18.01
2022-10-08T10:02:34.102Z,17.85
2022-10-08T10:05:05.673Z,17.55
2022-10-08T10:07:42.043Z,17.42
2022-10-08T10:10:30.028Z,17.21
2022-10-08T10:13:07.091Z,17.20
2022-10-08T10:15:39.822Z,17.26
2022-10-08T10:18:18.660Z,17.40
2022-10-08T10:20:54.178Z,17.45
2022-10-08T10:23:24.940Z,17.50
2022-10-08T10:25:53.210Z,17.40
2022-10-08T10:28:40.787Z,17.16
2022-10-08T10:31:14.241Z,17.09
2022-10-08T10:33:54.390Z,17.16
2022-10-08T10:36:24.932Z,17.20
2022-10-08T10:39:06.202Z,17.30
2022-10-08T10:41:43.546Z,17.45
2022-10-08T10:44:20.270Z,17.80
2022-10-08T10:46:55.231Z,17.76
2022-10-08T10:49:27.118Z,17.37
2022-10-08T10:52:21.631Z,17.10
2022-10-08T10:54:48.997Z,16.89
2022-10-08T10:57:26.982Z,17.19
2022-10-08T10:59:54.452Z,17.44
2022-10-08T11:02:32.023Z,17.48
2022-10-08T11:05:11.557Z,17.63
2022-10-08T11:07:51.197Z,17.84
2022-10-08T11:14:44.885Z,17.88
2022-10-08T11:17:22.302Z,17.94
2022-10-08T11:19:58.469Z,17.86
2022-10-08T11:23:12.975Z,17.84
2022-10-08T11:26:20.535Z,18.10
2022-10-08T11:28:52.376Z,18.20
2022-10-08T11:31:37.791Z,18.08
2022-10-08T11:34:14.683Z,17.97
2022-10-08T11:37:07.990Z,17.48
2022-10-08T11:39:58.487Z,17.46
2022-10-08T11:42:51.937Z,17.27
2022-10-08T11:45:29.840Z,17.44
2022-10-08T11:48:00.186Z,17.47
2022-10-08T11:50:29.201Z,17.38
2022-10-08T11:53:02.021Z,17.33
2022-10-08T11:55:32.820Z,17.44
2022-10-08T11:58:09.039Z,17.51
2022-10-08T12:00:40.272Z,17.72
2022-10-08T12:03:20.402Z,17.76
2022-10-08T12:05:53.291Z,17.86
2022-10-08T12:08:53.987Z,17.83
2022-10-08T12:11:36.698Z,17.73
2022-10-08T12:14:29.955Z,17.32
2022-10-08T12:16:57.551Z,17.34
2022-10-08T12:19:36.680Z,17.29
2022-10-08T12:22:24.334Z,17.13
2022-10-08T12:24:59.123Z,16.84
2022-10-08T12:27:38.281Z,16.83
2022-10-08T12:30:14.407Z,16.68
2022-10-08T12:32:41.894Z,16.74
2022-10-08T12:35:26.122Z,16.68
2022-10-08T12:37:56.570Z,16.58
2022-10-08T12:40:39.219Z,16.54
2022-10-08T12:43:32.170Z,16.60
2022-10-08T12:46:17.870Z,16.47
2022-10-08T12:48:58.147Z,16.43
2022-10-08T12:51:39.483Z,16.38
2022-10-08T12:54:22.632Z,16.33
2022-10-08T12:56:52.556Z,16.30
2022-10-08T12:59:23.009Z,16.48
2022-10-08T13:01:54.147Z,16.62
2022-10-08T13:04:24.603Z,16.65
2022-10-08T13:06:55.151Z,16.52
2022-10-08T13:09:33.860Z,16.44
2022-10-08T13:12:05.471Z,16.38
2022-10-08T13:14:41.380Z,16.49
2022-10-08T13:17:28.057Z,16.61
2022-10-08T13:20:15.991Z,16.79
2022-10-08T13:22:43.989Z,16.74
2022-10-08T13:25:35.003Z,16.69
2022-10-08T13:28:36.061Z,16.73
2022-10-08T13:31:23.382Z,16.82
2022-10-08T13:33:51.342Z,16.63
2022-10-08T13:36:23.548Z,16.64
2022-10-08T13:38:51.064Z,16.63
2022-10-08T13:41:24.010Z,16.59
2022-10-08T13:43:51.680Z,16.55
2022-10-08T13:46:19.196Z,16.59
2022-10-08T13:48:46.777Z,16.51
2022-10-08T13:51:14.226Z,16.34
2022-10-08T13:53:45.776Z,16.21
2022-10-08T13:56:13.810Z,16.09
2022-10-08T13:58:41.329Z,15.83
2022-10-08T14:01:08.859Z,15.68
2022-10-08T14:03:36.363Z,15.54
2022-10-08T14:06:04.080Z,15.63
2022-10-08T14:08:34.412Z,15.65
2022-10-08T14:11:02.056Z,15.77
2022-10-08T14:13:29.925Z,15.87
2022-10-08T14:15:57.826Z,15.92
2022-10-08T14:18:26.629Z,15.93
2022-10-08T14:20:54.181Z,16.16
2022-10-08T14:23:22.320Z,16.32
2022-10-08T14:25:51.160Z,16.24
2022-10-08T14:28:18.636Z,16.17
2022-10-08T14:30:46.174Z,16.13
2022-10-08T14:33:15.712Z,16.10
2022-10-08T14:35:43.237Z,16.04
2022-10-08T14:38:10.851Z,15.89
2022-10-08T14:40:39.125Z,15.75
2022-10-08T14:43:06.592Z,15.67
2022-10-08T14:45:34.316Z,15.49
2022-10-08T14:48:01.859Z,15.34
2022-10-08T14:50:29.548Z,15.25
2022-10-08T14:52:57.000Z,15.14
2022-10-08T14:55:24.502Z,15.05
2022-10-08T14:57:51.966Z,14.84
2022-10-08T15:00:19.551Z,14.72
2022-10-08T15:02:47.234Z,14.53
2022-10-08T15:05:14.950Z,14.50
2022-10-08T15:07:42.401Z,14.32
2022-10-08T15:10:10.129Z,14.34
2022-10-08T15:12:37.629Z,14.27
2022-10-08T15:15:05.920Z,14.17
2022-10-08T15:17:33.357Z,14.02
2022-10-08T15:20:00.891Z,13.88
2022-10-08T15:22:28.302Z,13.79
2022-10-08T15:24:55.741Z,13.73
2022-10-08T15:27:23.540Z,13.67
2022-10-08T15:29:50.980Z,13.64
2022-10-08T15:32:18.477Z,13.66
2022-10-08T15:34:45.952Z,13.54
2022-10-08T15:37:14.745Z,13.53
2022-10-08T15:39:42.144Z,13.48
2022-10-08T15:42:12.653Z,13.30
2022-10-08T15:44:43.468Z,13.28
2022-10-08T15:47:12.216Z,13.13
2022-10-08T15:49:43.912Z,13.00
2022-10-08T15:52:18.284Z,12.77
2022-10-08T15:54:46.302Z,12.63
2022-10-08T15:57:16.465Z,12.51
2022-10-08T15:59:44.286Z,12.40
2022-10-08T16:02:16.950Z,12.33
2022-10-08T16:04:47.153Z,12.12
2022-10-08T16:07:15.247Z,12.06
2022-10-08T16:09:42.707Z,11.98
2022-10-08T16:12:10.277Z,11.91
2022-10-08T16:14:37.712Z,11.83
2022-10-08T16:17:05.318Z,11.78
2022-10-08T16:19:32.840Z,11.79
2022-10-08T16:22:01.428Z,11.69
2022-10-08T16:24:28.951Z,11.67
2022-10-08T16:26:56.454Z,11.61
2022-10-08T16:29:23.834Z,11.53
2022-10-08T16:31:51.350Z,11.44
2022-10-08T16:34:21.219Z,11.37
2022-10-08T16:36:50.011Z,11.29
2022-10-08T16:39:20.654Z,11.31
2022-10-08T16:41:49.412Z,11.22
2022-10-08T16:44:19.480Z,11.16
2022-10-08T16:46:50.768Z,11.19
2022-10-08T16:49:24.483Z,11.24
2022-10-08T16:51:58.669Z,11.22
2022-10-08T16:54:27.032Z,11.24
2022-10-08T16:56:54.622Z,11.22
2022-10-08T16:59:24.780Z,11.19
2022-10-08T17:01:55.696Z,11.17
2022-10-08T17:04:25.271Z,11.19
2022-10-08T17:06:52.681Z,11.23
2022-10-08T17:09:20.887Z,11.18
2022-10-08T17:11:48.411Z,11.16
2022-10-08T17:14:16.606Z,11.13
2022-10-08T17:16:45.858Z,11.12
2022-10-08T17:19:13.939Z,11.07
2022-10-08T17:21:41.889Z,11.07
2022-10-08T17:24:11.691Z,11.03
2022-10-08T17:26:39.741Z,11.01
2022-10-08T17:29:09.464Z,10.90
2022-10-08T17:31:37.609Z,10.77
2022-10-08T17:34:06.401Z,10.72
2022-10-08T17:36:36.493Z,10.62
2022-10-08T17:39:06.586Z,10.55
2022-10-08T17:41:36.614Z,10.55
2022-10-08T17:44:06.945Z,10.46
2022-10-08T17:46:37.906Z,10.41
2022-10-08T17:49:06.237Z,10.37
2022-10-08T17:51:33.788Z,10.34
2022-10-08T17:54:07.494Z,10.31
2022-10-08T17:56:35.492Z,10.27
2022-10-08T17:59:03.127Z,10.25
2022-10-08T18:01:33.016Z,10.23
2022-10-08T18:04:02.989Z,10.22
2022-10-08T18:06:31.500Z,10.14
2022-10-08T18:09:01.020Z,10.15
2022-10-08T18:11:30.921Z,10.10
2022-10-08T18:13:58.681Z,10.07
2022-10-08T18:16:26.212Z,10.08
2022-10-08T18:18:54.011Z,10.06
2022-10-08T18:21:21.700Z,10.02
2022-10-08T18:23:49.918Z,10.00
2022-10-08T18:26:25.321Z,9.98
2022-10-08T18:28:57.580Z,9.99
2022-10-08T18:31:27.740Z,9.99
2022-10-08T18:33:58.742Z,9.91
2022-10-08T18:36:31.557Z,9.92
2022-10-08T18:39:01.448Z,9.91
2022-10-08T18:41:31.770Z,9.90
2022-10-08T18:44:00.752Z,9.88
2022-10-08T18:46:28.847Z,9.90
2022-10-08T18:48:57.061Z,9.96
2022-10-08T18:51:27.348Z,9.94
2022-10-08T18:53:56.986Z,9.88
2022-10-08T18:56:34.479Z,9.83
2022-10-08T18:59:04.528Z,9.85
2022-10-08T19:01:34.900Z,9.86
2022-10-08T19:04:05.026Z,9.88
2022-10-08T19:06:37.592Z,9.88
2022-10-08T19:09:06.515Z,9.86
2022-10-08T19:11:44.376Z,9.85
2022-10-08T19:14:15.476Z,9.82
2022-10-08T19:16:43.305Z,9.82
2022-10-08T19:19:20.120Z,9.78
2022-10-08T19:21:48.487Z,9.81
2022-10-08T19:24:19.660Z,9.86
2022-10-08T19:26:48.551Z,9.89
2022-10-08T19:29:18.758Z,9.84
2022-10-08T19:31:47.787Z,9.81
2022-10-08T19:34:18.129Z,9.76
2022-10-08T19:36:46.343Z,9.80
2022-10-08T19:39:16.603Z,9.72
2022-10-08T19:41:45.231Z,9.66
2022-10-08T19:44:12.871Z,9.62
2022-10-08T19:46:40.444Z,9.64
2022-10-08T19:49:09.921Z,9.62
2022-10-08T19:51:38.410Z,9.62
2022-10-08T19:54:06.302Z,9.59
2022-10-08T19:56:33.873Z,9.55
2022-10-08T19:59:01.951Z,9.51
2022-10-08T20:01:35.096Z,9.48
2022-10-08T20:04:05.102Z,9.47
2022-10-08T20:06:35.763Z,9.43
2022-10-08T20:09:04.247Z,9.33
2022-10-08T20:11:32.589Z,9.31
2022-10-08T20:14:00.981Z,9.28
2022-10-08T20:16:33.890Z,9.25
2022-10-08T20:19:04.673Z,9.24
2022-10-08T20:21:35.015Z,9.24
2022-10-08T20:24:03.047Z,9.21
2022-10-08T20:26:32.248Z,9.22
2022-10-08T20:29:02.251Z,9.21
2022-10-08T20:31:32.173Z,9.17
2022-10-08T20:34:02.491Z,9.15
2022-10-08T20:36:30.441Z,9.10
2022-10-08T20:38:58.307Z,9.02
2022-10-08T20:41:30.930Z,8.96
2022-10-08T20:44:03.571Z,8.94
2022-10-08T20:46:32.373Z,8.96
2022-10-08T20:49:00.067Z,9.03
2022-10-08T20:51:28.896Z,9.08
2022-10-08T20:53:59.061Z,9.10
2022-10-08T20:56:27.562Z,9.09
2022-10-08T20:58:55.727Z,9.07
2022-10-08T21:01:29.446Z,8.99
2022-10-08T21:03:57.671Z,8.94
2022-10-08T21:06:30.544Z,8.84
2022-10-08T21:08:59.456Z,8.82
2022-10-08T21:11:30.111Z,8.78
2022-10-08T21:13:59.700Z,8.73
2022-10-08T21:16:32.395Z,8.69
2022-10-08T21:19:02.672Z,8.67
2022-10-08T21:21:31.529Z,8.63
2022-10-08T21:23:59.687Z,8.58
2022-10-08T21:26:29.351Z,8.57
2022-10-08T21:29:01.878Z,8.52
2022-10-08T21:31:31.589Z,8.48
2022-10-08T21:33:59.829Z,8.42
2022-10-08T21:36:35.804Z,8.41
2022-10-08T21:39:05.298Z,8.36
2022-10-08T21:41:34.591Z,8.32
2022-10-08T21:44:04.713Z,8.28
2022-10-08T21:46:35.129Z,8.21
2022-10-08T21:49:06.012Z,8.19
2022-10-08T21:51:34.451Z,8.17
2022-10-08T21:54:03.858Z,8.12
2022-10-08T21:56:33.581Z,8.09
2022-10-08T21:59:03.937Z,8.03
2022-10-08T22:01:39.966Z,7.99
2022-10-08T22:04:17.399Z,7.94
2022-10-08T22:06:50.607Z,7.92
2022-10-08T22:09:19.701Z,7.87
2022-10-08T22:11:48.135Z,7.88
2022-10-08T22:14:16.582Z,7.85
2022-10-08T22:16:44.168Z,7.82
2022-10-08T22:19:11.852Z,7.82
2022-10-08T22:21:39.292Z,7.81
2022-10-08T22:24:07.280Z,7.79
2022-10-08T22:26:37.042Z,7.78
2022-10-08T22:29:05.519Z,7.75
2022-10-08T22:31:33.630Z,7.73
2022-10-08T22:34:01.251Z,7.73
2022-10-08T22:36:32.036Z,7.74
2022-10-08T22:38:59.882Z,7.71
2022-10-08T22:41:30.481Z,7.70
2022-10-08T22:43:59.214Z,7.68
2022-10-08T22:46:29.877Z,7.68
2022-10-08T22:49:02.789Z,7.66
2022-10-08T22:51:31.217Z,7.66
2022-10-08T22:53:59.160Z,7.64
2022-10-08T22:56:29.370Z,7.63
2022-10-08T22:58:59.326Z,7.65
2022-10-08T23:01:28.331Z,7.64
2022-10-08T23:03:56.481Z,7.62
2022-10-08T23:06:32.725Z,7.58
2022-10-08T23:09:11.551Z,7.53
2022-10-08T23:11:39.191Z,7.52
2022-10-08T23:14:07.021Z,7.48
2022-10-08T23:16:34.990Z,7.43
2022-10-08T23:19:05.895Z,7.41
2022-10-08T23:21:34.630Z,7.39
2022-10-08T23:24:03.206Z,7.38
2022-10-08T23:26:30.782Z,7.34
2022-10-08T23:29:00.619Z,7.30
2022-10-08T23:31:36.321Z,7.27
2022-10-08T23:34:06.551Z,7.27
2022-10-08T23:36:37.300Z,7.21
2022-10-08T23:39:06.217Z,7.25
2022-10-08T23:41:33.669Z,7.25
2022-10-08T23:44:01.407Z,7.22
2022-10-08T23:46:30.417Z,7.19
2022-10-08T23:48:59.535Z,7.20
2022-10-08T23:51:28.570Z,7.20
2022-10-08T23:53:55.997Z,7.17
2022-10-08T23:56:23.600Z,7.17
2022-10-08T23:58:51.229Z,7.17
